Key Pacifico — 3FGU4 — position and weather

sailwx.info

Track history (hours):
 
Tides and Currents Weather Stations Pressure Air Temp Water Temp Dewpoint Dewpoint Depression Visibility Wind Speed Wind Dir Waves Ship Positions

Key Pacifico

Last reported at 2017-Dec-16 04:31 UTC. Time now 2017-Dec-16 19:07 UTC.
Position N 25°27' W 079°32'.

Length 229 m; draft 7.4 m.

Type: Cargo ship. MMSI: 354974000.

Date/timePositionNaut miles runAvg speedWind from/ knotsBaromVisibWave heightAir tempDewpointWater temp
2017-Dec-16 04:31N 25°27' W 079°32'012.8
2017-Dec-16 04:30N 25°27' W 079°32'612.9
2017-Dec-16 04:00N 25°33' W 079°31'713.0
2017-Dec-16 03:30N 25°40' W 079°30'713.2
2017-Dec-16 03:00N 25°46' W 079°28'713.1
2017-Dec-16 02:29N 25°53' W 079°27'1212.9
2017-Dec-16 01:34N 26°04' W 079°25'313.2
2017-Dec-16 01:22N 26°07' W 079°24'513.0
2017-Dec-16 01:00N 26°12' W 079°23'713.3
2017-Dec-16 00:30N 26°18' W 079°22'  
Track history (hours):
 
Tides and Currents Weather Stations Pressure Air Temp Water Temp Dewpoint Dewpoint Depression Visibility Wind Speed Wind Dir Waves Ship Positions

Key Pacifico

Last reported at 2017-Dec-16 04:31 UTC. Time now 2017-Dec-16 19:07 UTC.
Position N 25°27' W 079°32'.

Length 229 m; draft 7.4 m.

Type: Cargo ship. MMSI: 354974000.

Date/timePositionNaut miles runAvg speedWind from/ knotsBaromVisibWave heightAir tempDewpointWater temp
2017-Dec-16 04:31N 25°27' W 079°32'012.8
2017-Dec-16 04:30N 25°27' W 079°32'612.9
2017-Dec-16 04:00N 25°33' W 079°31'713.0
2017-Dec-16 03:30N 25°40' W 079°30'713.2
2017-Dec-16 03:00N 25°46' W 079°28'713.1
2017-Dec-16 02:29N 25°53' W 079°27'1212.9
2017-Dec-16 01:34N 26°04' W 079°25'313.2
2017-Dec-16 01:22N 26°07' W 079°24'513.0
2017-Dec-16 01:00N 26°12' W 079°23'713.3
2017-Dec-16 00:30N 26°18' W 079°22'  

Dump ship's entire track history